Time;durP1;ratioP1;P1;durP2;ratioP2;P2;SDS_P1;SDS_P2;PMS_P1;PMS_P2;Temp;Humidity;BMP_temperature;BMP_pressure;BME280_temperature;BME280_humidity;BME280_pressure;Samples;Min_cycle;Max_cycle;Signal;HPM_P1;HPM_P2
2023/06/03 00:02:01;;;;;;;8.40;4.40;;;16.00;99.90;;;;;;5033376;28;20348;-40
2023/06/03 00:04:30;;;;;;;8.43;4.27;;;15.90;99.90;;;;;;5049891;28;20198;-39
2023/06/03 00:06:56;;;;;;;9.43;4.30;;;15.90;99.90;;;;;;5049760;28;20190;-40
2023/06/03 00:09:23;;;;;;;9.63;4.53;;;15.80;99.90;;;;;;5031379;28;20269;-42
2023/06/03 00:11:48;;;;;;;6.63;4.37;;;15.80;99.90;;;;;;5051069;28;20185;-40
2023/06/03 00:14:15;;;;;;;8.97;4.50;;;15.80;99.90;;;;;;5049903;28;20256;-41
2023/06/03 00:16:45;;;;;;;5.30;3.60;;;15.80;99.90;;;;;;5049628;28;20217;-42
2023/06/03 00:19:14;;;;;;;6.40;3.67;;;15.80;99.90;;;;;;5041591;28;20189;-42
2023/06/03 00:21:54;;;;;;;10.30;4.17;;;15.80;99.90;;;;;;5052855;28;20185;-42
2023/06/03 00:24:22;;;;;;;8.17;3.50;;;15.70;99.90;;;;;;5054083;28;20201;-42
2023/06/03 00:26:49;;;;;;;10.17;4.07;;;15.70;99.90;;;;;;5032675;28;20193;-42
2023/06/03 00:29:15;;;;;;;6.40;4.30;;;15.70;99.90;;;;;;5051149;28;20177;-42
2023/06/03 00:31:43;;;;;;;6.60;4.17;;;15.70;99.90;;;;;;5049352;28;20186;-41
2023/06/03 00:34:09;;;;;;;8.87;4.30;;;15.70;99.90;;;;;;5049405;28;20213;-42
2023/06/03 00:36:35;;;;;;;5.80;4.10;;;15.70;99.90;;;;;;5049230;28;20213;-38
2023/06/03 00:39:01;;;;;;;8.13;4.10;;;15.70;99.90;;;;;;5046771;28;20194;-42
2023/06/03 00:41:27;;;;;;;7.63;4.30;;;15.60;99.90;;;;;;5032978;28;20174;-42
2023/06/03 00:43:53;;;;;;;5.97;3.40;;;15.50;99.90;;;;;;5032913;28;20209;-42
2023/06/03 00:46:20;;;;;;;8.63;4.23;;;15.50;99.90;;;;;;5049276;28;20190;-39
2023/06/03 00:48:47;;;;;;;6.57;3.87;;;15.50;99.90;;;;;;5049756;28;20204;-42
2023/06/03 00:51:14;;;;;;;9.73;4.80;;;15.40;99.90;;;;;;5029620;28;20186;-41
2023/06/03 00:53:40;;;;;;;8.50;4.40;;;15.30;99.90;;;;;;5045071;28;20202;-42
2023/06/03 00:56:06;;;;;;;7.60;4.00;;;15.20;99.90;;;;;;5040084;28;20205;-41
2023/06/03 00:58:32;;;;;;;8.83;4.23;;;15.20;99.90;;;;;;5050702;28;20327;-40
2023/06/03 01:00:58;;;;;;;7.73;4.50;;;15.20;99.90;;;;;;5049174;28;20200;-42
2023/06/03 01:03:24;;;;;;;9.43;4.40;;;15.10;99.90;;;;;;5029217;28;20183;-42
2023/06/03 01:06:16;;;;;;;9.57;4.47;;;15.00;99.90;;;;;;5045846;28;20189;-42
2023/06/03 01:09:00;;;;;;;8.10;4.07;;;15.00;99.90;;;;;;5039709;28;20209;-41
2023/06/03 01:11:47;;;;;;;7.03;3.87;;;14.90;99.90;;;;;;5048394;28;20181;-42
2023/06/03 01:14:33;;;;;;;8.20;5.10;;;14.80;99.90;;;;;;5045887;28;20229;-42
2023/06/03 01:17:09;;;;;;;8.13;4.93;;;14.70;99.90;;;;;;5028524;28;20309;-41
2023/06/03 01:19:48;;;;;;;8.00;4.67;;;14.60;99.90;;;;;;5032220;28;20173;-43
2023/06/03 01:22:16;;;;;;;10.97;5.20;;;14.60;99.90;;;;;;5056763;28;20242;-42
2023/06/03 01:24:43;;;;;;;8.57;4.70;;;14.60;99.90;;;;;;5054785;28;20213;-42
2023/06/03 01:27:10;;;;;;;7.13;4.27;;;14.60;99.90;;;;;;5040988;28;20186;-43
2023/06/03 01:29:43;;;;;;;5.80;4.33;;;14.50;99.90;;;;;;5032621;28;20185;-42
2023/06/03 01:32:17;;;;;;;8.10;4.60;;;14.50;99.90;;;;;;5046681;28;20189;-42
2023/06/03 01:34:43;;;;;;;10.13;4.83;;;14.40;99.90;;;;;;5036178;28;20225;-42
2023/06/03 01:37:10;;;;;;;5.70;4.60;;;14.40;99.90;;;;;;5040581;28;20218;-41
2023/06/03 01:39:39;;;;;;;6.87;4.60;;;14.40;99.90;;;;;;5027098;28;20213;-42
2023/06/03 01:42:10;;;;;;;9.43;5.13;;;14.30;99.90;;;;;;5048430;28;20188;-41
2023/06/03 01:44:37;;;;;;;11.50;5.23;;;14.20;99.90;;;;;;5049031;28;20190;-41
2023/06/03 01:47:04;;;;;;;8.00;4.63;;;14.20;99.90;;;;;;5047889;28;20190;-42
2023/06/03 01:49:31;;;;;;;7.07;5.00;;;14.20;99.90;;;;;;5050289;28;20268;-39
2023/06/03 01:52:01;;;;;;;10.40;5.07;;;14.20;99.90;;;;;;5039874;28;20193;-39
2023/06/03 01:54:29;;;;;;;9.33;5.53;;;14.20;99.90;;;;;;5044417;28;20209;-41
2023/06/03 01:56:57;;;;;;;7.17;4.87;;;14.10;99.90;;;;;;5052190;28;20296;-42
2023/06/03 01:59:24;;;;;;;9.27;5.20;;;14.10;99.90;;;;;;5052667;28;20185;-42
2023/06/03 02:01:57;;;;;;;8.40;5.00;;;14.00;99.90;;;;;;5035787;28;20195;-42
2023/06/03 02:04:24;;;;;;;8.33;4.63;;;13.90;99.90;;;;;;5053340;28;20203;-42
2023/06/03 02:06:55;;;;;;;9.90;4.90;;;13.80;99.90;;;;;;5045985;28;20182;-41
2023/06/03 02:09:22;;;;;;;12.27;5.63;;;13.70;99.90;;;;;;5050005;28;20193;-39
2023/06/03 02:11:48;;;;;;;8.53;4.83;;;13.60;99.90;;;;;;5052175;28;20187;-41
2023/06/03 02:14:14;;;;;;;7.23;5.03;;;13.60;99.90;;;;;;5052260;28;20247;-42
2023/06/03 02:16:41;;;;;;;10.23;5.40;;;13.50;99.90;;;;;;5051782;28;20209;-42
2023/06/03 02:19:15;;;;;;;10.63;5.30;;;13.50;99.90;;;;;;5035767;28;20184;-41
2023/06/03 02:21:44;;;;;;;8.73;5.17;;;13.50;99.90;;;;;;5051157;28;20190;-42
2023/06/03 02:24:14;;;;;;;10.07;5.50;;;13.50;99.90;;;;;;5063680;28;20278;-41
2023/06/03 02:26:49;;;;;;;6.70;4.50;;;13.50;99.90;;;;;;5056051;28;20191;-42
2023/06/03 02:29:19;;;;;;;10.07;5.17;;;13.40;99.90;;;;;;5035463;28;20205;-41
2023/06/03 02:31:46;;;;;;;6.47;4.67;;;13.40;99.90;;;;;;5051320;28;20218;-42
2023/06/03 02:34:12;;;;;;;6.20;4.23;;;13.30;99.90;;;;;;5035046;28;20255;-41
2023/06/03 02:36:38;;;;;;;5.90;4.87;;;13.40;99.90;;;;;;5052848;28;20216;-41
2023/06/03 02:39:07;;;;;;;6.63;4.87;;;13.30;99.90;;;;;;5032579;28;20186;-42
2023/06/03 02:41:33;;;;;;;9.20;5.00;;;13.20;99.90;;;;;;5035220;28;20227;-39
2023/06/03 02:44:00;;;;;;;6.67;5.40;;;13.20;99.90;;;;;;5034875;28;20295;-41
2023/06/03 02:46:26;;;;;;;9.53;5.30;;;13.10;99.90;;;;;;5051511;28;20260;-38
2023/06/03 02:48:51;;;;;;;9.27;4.90;;;13.10;99.90;;;;;;5051192;28;20192;-42
2023/06/03 02:51:17;;;;;;;8.03;5.07;;;13.00;99.90;;;;;;5050442;28;20680;-42
2023/06/03 02:53:43;;;;;;;7.43;4.33;;;12.90;99.90;;;;;;5046166;28;20203;-41
2023/06/03 02:56:09;;;;;;;6.50;5.40;;;12.90;99.90;;;;;;5033629;28;20204;-41
2023/06/03 02:58:34;;;;;;;9.40;4.90;;;12.90;99.90;;;;;;5034540;28;20209;-41
2023/06/03 03:01:00;;;;;;;9.30;4.80;;;12.80;99.90;;;;;;5050619;28;20199;-41
2023/06/03 03:03:26;;;;;;;8.83;5.83;;;12.80;99.90;;;;;;5051271;28;20183;-42
2023/06/03 03:05:54;;;;;;;8.20;4.70;;;12.70;99.90;;;;;;5034607;28;20187;-41
2023/06/03 03:08:24;;;;;;;6.77;4.70;;;12.70;99.90;;;;;;5030889;28;20185;-42
2023/06/03 03:10:49;;;;;;;8.83;5.20;;;12.70;99.90;;;;;;5034368;28;20235;-42
2023/06/03 03:13:15;;;;;;;8.90;5.00;;;12.70;99.90;;;;;;5034516;28;20178;-42
2023/06/03 03:15:44;;;;;;;8.17;5.13;;;12.80;99.90;;;;;;5034402;28;20199;-39
2023/06/03 03:18:10;;;;;;;8.37;5.47;;;12.80;99.90;;;;;;5051093;28;20212;-39
2023/06/03 03:20:36;;;;;;;8.10;4.90;;;12.60;99.90;;;;;;5051002;28;20265;-41
2023/06/03 03:23:02;;;;;;;7.17;4.60;;;12.60;99.90;;;;;;5063414;28;20219;-42
2023/06/03 03:25:28;;;;;;;9.40;5.10;;;12.60;99.90;;;;;;5042721;28;20203;-40
2023/06/03 03:27:54;;;;;;;7.57;5.03;;;12.60;99.90;;;;;;5051029;28;20198;-40
2023/06/03 03:30:20;;;;;;;8.47;5.57;;;12.60;99.90;;;;;;5033910;28;20417;-42
2023/06/03 03:32:46;;;;;;;9.20;5.33;;;12.60;99.90;;;;;;5050606;28;20213;-41
2023/06/03 03:35:17;;;;;;;8.33;5.10;;;12.50;99.90;;;;;;5034633;28;20198;-42
2023/06/03 03:37:48;;;;;;;10.50;5.10;;;12.50;99.90;;;;;;5032054;28;20203;-42
2023/06/03 03:40:22;;;;;;;6.93;5.57;;;12.50;99.90;;;;;;5050693;28;20183;-41
2023/06/03 03:42:53;;;;;;;8.53;4.83;;;12.50;99.90;;;;;;5050618;28;20246;-41
2023/06/03 03:45:26;;;;;;;10.43;5.33;;;12.50;99.90;;;;;;5050643;28;20195;-39
2023/06/03 03:48:03;;;;;;;9.17;5.70;;;12.40;99.90;;;;;;5050273;28;20214;-41
2023/06/03 03:50:48;;;;;;;9.30;5.50;;;12.40;99.90;;;;;;5034104;28;20178;-43
2023/06/03 03:53:25;;;;;;;7.70;5.47;;;12.40;99.90;;;;;;5038768;28;20183;-44
2023/06/03 03:55:53;;;;;;;9.27;5.37;;;12.30;99.90;;;;;;5041924;28;20217;-44
2023/06/03 03:58:26;;;;;;;10.57;5.87;;;12.30;99.90;;;;;;5042202;28;20235;-41
2023/06/03 04:01:00;;;;;;;10.43;6.03;;;12.30;99.90;;;;;;5041697;28;20197;-42
2023/06/03 04:03:30;;;;;;;11.00;5.17;;;12.20;99.90;;;;;;5050155;28;20178;-40
2023/06/03 04:05:56;;;;;;;9.77;5.53;;;12.20;99.90;;;;;;5030779;28;20190;-42
2023/06/03 04:08:36;;;;;;;8.37;5.27;;;12.20;99.90;;;;;;5047145;28;20185;-41
2023/06/03 04:11:04;;;;;;;13.43;6.50;;;12.20;99.90;;;;;;5033375;28;20185;-42
2023/06/03 04:13:35;;;;;;;7.87;5.50;;;12.10;99.90;;;;;;5032556;28;20276;-40
2023/06/03 04:16:06;;;;;;;11.60;5.77;;;12.20;99.90;;;;;;5031328;28;20210;-40
2023/06/03 04:18:36;;;;;;;8.03;5.40;;;12.10;99.90;;;;;;5033275;28;20182;-41
2023/06/03 04:21:02;;;;;;;11.47;5.60;;;12.10;99.90;;;;;;5033120;28;20280;-41
2023/06/03 04:23:28;;;;;;;8.17;5.27;;;12.10;99.90;;;;;;5046007;28;20269;-41
2023/06/03 04:25:54;;;;;;;8.07;5.47;;;12.10;99.90;;;;;;5041175;28;20190;-42
2023/06/03 04:28:21;;;;;;;9.43;5.63;;;12.20;99.90;;;;;;5049636;28;20198;-41
2023/06/03 04:30:48;;;;;;;11.27;5.40;;;12.20;99.90;;;;;;5049261;28;20185;-41
2023/06/03 04:33:13;;;;;;;7.20;5.37;;;12.20;99.90;;;;;;5049371;28;20287;-41
2023/06/03 04:35:40;;;;;;;8.20;5.60;;;12.30;99.90;;;;;;5033101;28;20273;-41
2023/06/03 04:38:05;;;;;;;10.17;5.33;;;12.40;99.90;;;;;;5032913;28;20262;-41
2023/06/03 04:40:31;;;;;;;9.40;5.20;;;12.40;99.90;;;;;;5032381;28;20250;-40
2023/06/03 04:43:03;;;;;;;10.23;5.37;;;12.50;99.90;;;;;;5033287;28;20221;-39
2023/06/03 04:45:31;;;;;;;11.20;6.27;;;12.60;99.90;;;;;;5028738;28;20303;-41
2023/06/03 04:48:01;;;;;;;8.40;5.80;;;12.70;99.90;;;;;;5029773;28;20218;-41
2023/06/03 04:50:34;;;;;;;7.60;5.73;;;12.80;99.90;;;;;;5049702;28;20178;-41
2023/06/03 04:53:01;;;;;;;12.17;6.17;;;12.90;99.90;;;;;;5055387;28;20186;-40
2023/06/03 04:55:27;;;;;;;12.60;6.63;;;12.90;99.90;;;;;;5045972;28;20293;-42
2023/06/03 04:57:54;;;;;;;8.57;5.77;;;13.00;99.90;;;;;;5040781;28;20189;-41
2023/06/03 05:00:22;;;;;;;9.43;6.40;;;13.10;99.90;;;;;;5032952;28;20180;-41
2023/06/03 05:02:55;;;;;;;9.73;5.83;;;13.10;99.90;;;;;;5041086;28;20271;-41
2023/06/03 05:05:26;;;;;;;9.73;6.43;;;13.10;99.90;;;;;;5049127;28;20201;-41
2023/06/03 05:07:52;;;;;;;7.73;5.93;;;13.20;99.90;;;;;;5046134;28;20196;-41
2023/06/03 05:10:18;;;;;;;10.90;5.80;;;13.20;99.90;;;;;;5024486;28;20205;-43
2023/06/03 05:12:46;;;;;;;7.63;5.07;;;13.30;99.90;;;;;;5033099;28;20180;-43
2023/06/03 05:15:13;;;;;;;9.17;5.40;;;13.40;99.90;;;;;;5049177;28;20227;-44
2023/06/03 05:17:39;;;;;;;9.47;6.03;;;13.40;99.90;;;;;;5049466;28;20175;-43
2023/06/03 05:20:09;;;;;;;6.83;5.63;;;13.50;99.90;;;;;;5049290;28;20176;-43
2023/06/03 05:22:36;;;;;;;9.73;5.70;;;13.50;99.90;;;;;;5036753;28;20235;-44
2023/06/03 05:25:06;;;;;;;9.63;6.00;;;13.60;99.90;;;;;;5049590;28;20215;-43
2023/06/03 05:27:32;;;;;;;8.67;5.60;;;13.60;99.90;;;;;;5054430;28;20176;-43
2023/06/03 05:29:57;;;;;;;8.97;6.10;;;13.70;99.90;;;;;;5053157;28;20181;-41
2023/06/03 05:32:24;;;;;;;11.73;5.73;;;13.80;99.90;;;;;;5053040;28;20180;-44
2023/06/03 05:34:50;;;;;;;9.73;6.13;;;13.90;99.90;;;;;;5052808;28;20212;-43
2023/06/03 05:37:17;;;;;;;9.23;5.77;;;14.00;99.90;;;;;;5036371;28;20209;-43
2023/06/03 05:39:43;;;;;;;9.97;5.70;;;14.20;99.90;;;;;;5049653;28;20185;-42
2023/06/03 05:42:10;;;;;;;6.50;5.37;;;14.30;99.90;;;;;;5053138;28;20191;-43
2023/06/03 05:44:36;;;;;;;9.37;6.27;;;14.50;99.90;;;;;;5036244;28;20676;-43
2023/06/03 05:47:02;;;;;;;10.97;6.10;;;14.60;99.90;;;;;;5036010;28;20212;-43
2023/06/03 05:49:28;;;;;;;12.00;6.57;;;14.70;99.90;;;;;;5052779;28;20185;-43
2023/06/03 05:51:55;;;;;;;10.90;6.20;;;14.90;99.90;;;;;;5040552;28;20173;-41
2023/06/03 05:54:20;;;;;;;11.30;5.53;;;15.00;99.90;;;;;;5056337;28;20265;-43
2023/06/03 05:56:47;;;;;;;9.10;5.30;;;15.10;99.90;;;;;;5040065;28;20211;-42
2023/06/03 05:59:13;;;;;;;9.67;5.97;;;15.20;99.90;;;;;;5052414;28;20261;-42
2023/06/03 06:01:42;;;;;;;8.93;5.17;;;15.40;99.90;;;;;;5036211;28;20278;-39
2023/06/03 06:04:08;;;;;;;11.40;5.23;;;15.50;99.90;;;;;;5035857;28;20204;-43
2023/06/03 06:06:34;;;;;;;10.97;5.87;;;15.70;99.90;;;;;;5051847;28;20182;-42
2023/06/03 06:08:59;;;;;;;9.30;5.03;;;15.70;99.90;;;;;;5027357;28;20193;-42
2023/06/03 06:11:26;;;;;;;9.37;5.50;;;15.90;99.90;;;;;;5032247;28;20183;-42
2023/06/03 06:13:53;;;;;;;9.00;4.93;;;16.10;99.90;;;;;;5048557;28;20202;-43
2023/06/03 06:16:19;;;;;;;12.93;4.80;;;16.20;99.90;;;;;;5035668;28;20193;-42
2023/06/03 06:18:45;;;;;;;7.40;4.53;;;16.50;99.90;;;;;;5035739;28;20207;-42
2023/06/03 06:21:11;;;;;;;14.20;5.30;;;16.60;99.90;;;;;;5051979;28;20402;-43
2023/06/03 06:23:41;;;;;;;11.40;4.97;;;16.70;99.90;;;;;;5063579;28;20193;-42
2023/06/03 06:26:07;;;;;;;11.70;4.97;;;16.80;99.90;;;;;;5053364;28;20197;-41
2023/06/03 06:28:33;;;;;;;12.20;5.00;;;16.80;99.90;;;;;;5052065;28;20182;-43
2023/06/03 06:31:05;;;;;;;6.83;4.97;;;16.90;99.90;;;;;;5052151;28;20189;-42
2023/06/03 06:33:36;;;;;;;10.57;4.83;;;17.10;99.90;;;;;;5043283;28;20246;-43
2023/06/03 06:36:13;;;;;;;8.70;5.13;;;17.20;99.90;;;;;;5050420;28;20209;-43
2023/06/03 06:38:39;;;;;;;7.57;5.00;;;17.40;99.90;;;;;;5048475;28;20222;-42
2023/06/03 06:41:05;;;;;;;9.52;5.20;;;17.60;99.90;;;;;;5050670;28;20301;-43
2023/06/03 06:43:35;;;;;;;10.60;5.50;;;17.70;99.90;;;;;;5035476;28;20202;-43
2023/06/03 06:46:02;;;;;;;8.13;5.13;;;17.80;99.90;;;;;;5050360;28;20190;-41
2023/06/03 06:48:30;;;;;;;8.63;4.82;;;18.00;99.90;;;;;;5051418;28;20178;-40
2023/06/03 06:50:59;;;;;;;8.90;4.30;;;18.10;99.90;;;;;;5035016;28;20182;-43
2023/06/03 06:53:33;;;;;;;7.53;4.78;;;18.20;99.90;;;;;;5046515;28;20201;-43
2023/06/03 06:56:08;;;;;;;11.30;5.80;;;18.30;99.90;;;;;;5041275;28;20234;-40
2023/06/03 06:58:39;;;;;;;9.80;4.80;;;18.20;99.90;;;;;;5035570;28;20224;-42
2023/06/03 07:01:06;;;;;;;7.15;4.47;;;18.30;99.90;;;;;;5034800;28;20185;-42
2023/06/03 07:03:36;;;;;;;9.18;4.85;;;18.50;99.90;;;;;;5051407;28;20251;-43
2023/06/03 07:06:02;;;;;;;10.93;4.82;;;18.70;99.90;;;;;;5034556;28;20178;-43
2023/06/03 07:08:30;;;;;;;11.32;5.20;;;18.80;99.90;;;;;;5031256;28;20212;-43
2023/06/03 07:11:02;;;;;;;6.03;4.30;;;19.10;99.90;;;;;;5050956;28;20185;-41
2023/06/03 07:13:30;;;;;;;10.02;4.47;;;19.30;99.90;;;;;;5050853;28;20185;-43
2023/06/03 07:15:56;;;;;;;7.78;4.40;;;19.40;99.90;;;;;;5034129;28;20269;-43
2023/06/03 07:18:25;;;;;;;8.25;4.45;;;19.60;99.90;;;;;;5034304;28;20320;-43
2023/06/03 07:20:51;;;;;;;7.32;4.57;;;19.80;99.90;;;;;;5051159;28;20201;-43
2023/06/03 07:23:25;;;;;;;7.55;4.25;;;19.60;99.90;;;;;;5063992;28;20178;-43
2023/06/03 07:25:52;;;;;;;10.55;4.97;;;19.70;99.90;;;;;;5034168;28;20227;-42
2023/06/03 07:28:31;;;;;;;6.97;4.50;;;19.80;99.90;;;;;;5051139;28;20170;-43
2023/06/03 07:31:05;;;;;;;9.07;4.65;;;19.90;99.90;;;;;;5031784;28;20405;-43
2023/06/03 07:33:37;;;;;;;9.32;4.95;;;19.80;99.90;;;;;;5034007;28;20190;-41
2023/06/03 07:36:04;;;;;;;8.65;4.40;;;19.80;99.90;;;;;;5034035;28;20205;-43
2023/06/03 07:38:42;;;;;;;9.45;4.90;;;19.70;99.90;;;;;;5047405;28;20197;-41
2023/06/03 07:41:12;;;;;;;8.70;4.63;;;19.80;99.90;;;;;;5033840;28;20193;-41
2023/06/03 07:43:44;;;;;;;7.88;4.32;;;19.80;99.90;;;;;;5050507;28;20319;-42
2023/06/03 07:46:10;;;;;;;7.75;4.85;;;20.00;99.90;;;;;;5051788;28;20217;-43
2023/06/03 07:48:39;;;;;;;7.93;4.53;;;20.30;99.90;;;;;;5050552;28;20188;-42
2023/06/03 07:51:06;;;;;;;7.28;4.55;;;20.30;99.90;;;;;;5033573;28;20196;-43
2023/06/03 07:53:36;;;;;;;5.43;4.05;;;20.50;99.90;;;;;;5060659;28;20197;-43
2023/06/03 07:56:09;;;;;;;8.98;5.10;;;20.80;99.90;;;;;;5044024;28;20300;-43
2023/06/03 07:58:38;;;;;;;6.65;4.60;;;20.80;99.90;;;;;;5051867;28;20264;-43
2023/06/03 08:01:05;;;;;;;7.03;4.57;;;20.90;99.90;;;;;;5033460;28;20209;-43
2023/06/03 08:03:32;;;;;;;8.00;4.88;;;20.90;99.90;;;;;;5041730;28;20249;-43
2023/06/03 08:05:58;;;;;;;8.15;4.60;;;21.10;99.90;;;;;;5050231;28;20273;-43
2023/06/03 08:08:32;;;;;;;9.85;4.47;;;21.20;99.90;;;;;;5047829;28;20280;-41
2023/06/03 08:11:00;;;;;;;6.75;4.68;;;21.30;99.90;;;;;;5050121;28;20190;-43
2023/06/03 08:13:26;;;;;;;10.05;4.65;;;21.40;99.90;;;;;;5039781;28;20186;-43
2023/06/03 08:15:52;;;;;;;6.60;4.40;;;21.60;99.90;;;;;;5049519;28;20221;-42
2023/06/03 08:18:45;;;;;;;7.80;4.88;;;21.60;99.90;;;;;;5033939;28;20188;-43
2023/06/03 08:21:12;;;;;;;6.47;4.68;;;21.50;99.90;;;;;;5046896;28;20284;-41
2023/06/03 08:23:38;;;;;;;8.38;5.30;;;21.80;99.90;;;;;;5044268;28;20189;-42
2023/06/03 08:26:04;;;;;;;8.63;5.22;;;21.90;99.90;;;;;;5060083;28;20344;-43
2023/06/03 08:28:30;;;;;;;7.85;4.80;;;21.90;99.90;;;;;;5029439;28;20186;-43
2023/06/03 08:30:56;;;;;;;8.40;4.28;;;21.90;99.90;;;;;;5046352;28;20186;-41
2023/06/03 08:33:22;;;;;;;9.85;5.60;;;22.00;99.90;;;;;;5029589;28;20731;-42
2023/06/03 08:35:48;;;;;;;10.32;5.13;;;22.20;99.90;;;;;;5045323;28;20206;-43
2023/06/03 08:38:18;;;;;;;7.10;4.97;;;22.40;99.90;;;;;;5046211;28;20207;-43
2023/06/03 08:40:49;;;;;;;6.90;5.00;;;22.50;99.90;;;;;;5033237;28;20188;-43
2023/06/03 08:43:17;;;;;;;9.10;4.75;;;22.70;99.90;;;;;;5046828;28;20174;-43
2023/06/03 08:46:01;;;;;;;9.10;5.32;;;22.80;99.90;;;;;;5036417;28;20186;-43
2023/06/03 08:48:46;;;;;;;6.50;5.20;;;22.70;99.90;;;;;;5049455;28;20190;-43
2023/06/03 08:51:15;;;;;;;8.43;5.30;;;22.80;99.90;;;;;;5049060;28;20217;-43
2023/06/03 08:53:49;;;;;;;7.80;4.65;;;23.00;99.90;;;;;;5051644;28;20304;-43
2023/06/03 08:56:17;;;;;;;5.32;4.20;;;23.30;99.90;;;;;;5049974;28;20209;-43
2023/06/03 08:58:51;;;;;;;7.07;4.53;;;23.50;99.90;;;;;;5030896;28;20204;-43
2023/06/03 09:01:19;;;;;;;9.88;4.80;;;23.70;99.90;;;;;;5040271;28;20174;-42
2023/06/03 09:03:45;;;;;;;8.93;4.78;;;23.90;99.90;;;;;;5049687;28;20198;-43
2023/06/03 09:06:12;;;;;;;7.88;5.13;;;24.20;99.90;;;;;;5032547;28;20189;-42
2023/06/03 09:08:39;;;;;;;9.20;4.50;;;24.40;99.90;;;;;;5028992;28;20181;-43
2023/06/03 09:11:09;;;;;;;6.40;4.45;;;24.40;99.90;;;;;;5048079;28;20181;-43
2023/06/03 09:13:35;;;;;;;7.28;5.07;;;24.50;99.90;;;;;;5033217;28;20202;-43
2023/06/03 09:16:02;;;;;;;6.55;4.32;;;24.50;99.90;;;;;;5031545;28;20240;-43
2023/06/03 09:18:29;;;;;;;8.43;4.80;;;24.60;99.90;;;;;;5025696;28;20189;-44
2023/06/03 09:20:55;;;;;;;8.60;4.90;;;24.60;99.90;;;;;;5050194;28;20178;-37
2023/06/03 09:23:22;;;;;;;8.48;5.05;;;24.60;99.90;;;;;;5062741;28;20257;-41
2023/06/03 09:25:48;;;;;;;9.52;4.60;;;24.70;99.90;;;;;;5057400;28;20178;-44
2023/06/03 09:28:14;;;;;;;7.93;4.53;;;24.80;99.90;;;;;;5032842;28;20243;-43
2023/06/03 09:30:40;;;;;;;8.07;4.82;;;25.00;99.90;;;;;;5049027;28;20264;-43
2023/06/03 09:33:06;;;;;;;8.85;5.25;;;25.00;99.90;;;;;;5030823;28;20289;-43
2023/06/03 09:35:31;;;;;;;7.55;4.45;;;25.00;99.90;;;;;;5048988;28;20301;-42
2023/06/03 09:38:00;;;;;;;7.38;5.15;;;24.70;99.90;;;;;;5047010;28;20179;-43
2023/06/03 09:40:28;;;;;;;10.77;5.45;;;24.80;99.90;;;;;;5049121;28;20174;-43
2023/06/03 09:42:55;;;;;;;7.72;5.07;;;24.90;99.90;;;;;;5032605;28;20194;-43
2023/06/03 09:45:32;;;;;;;8.23;5.30;;;24.80;99.90;;;;;;5040769;28;20194;-44
2023/06/03 09:47:59;;;;;;;8.32;4.47;;;24.90;99.90;;;;;;5032205;28;20182;-41
2023/06/03 09:50:30;;;;;;;8.77;4.95;;;25.10;99.90;;;;;;5029130;28;20236;-43
2023/06/03 09:52:56;;;;;;;11.75;5.10;;;25.00;99.90;;;;;;5037938;28;20189;-44
2023/06/03 09:55:34;;;;;;;10.43;5.40;;;24.70;99.90;;;;;;5064729;28;20209;-41
2023/06/03 09:58:05;;;;;;;5.72;4.75;;;25.00;99.90;;;;;;5031884;28;20213;-43
2023/06/03 10:00:47;;;;;;;10.35;5.43;;;25.20;99.90;;;;;;5032125;28;20184;-43
2023/06/03 10:03:13;;;;;;;9.13;4.80;;;25.50;99.90;;;;;;5048603;28;20178;-41
2023/06/03 10:05:41;;;;;;;9.20;5.35;;;25.70;99.90;;;;;;5048898;28;20184;-43
2023/06/03 10:08:07;;;;;;;7.75;5.28;;;25.90;99.90;;;;;;5048780;28;20248;-44
2023/06/03 10:10:34;;;;;;;7.80;5.15;;;26.00;99.90;;;;;;5032013;28;20785;-42
2023/06/03 10:13:20;;;;;;;9.63;5.78;;;26.10;99.90;;;;;;5052804;28;20189;-42
2023/06/03 10:15:45;;;;;;;7.70;5.00;;;26.30;99.90;;;;;;5052447;28;20229;-40
2023/06/03 10:18:12;;;;;;;8.98;5.35;;;26.20;99.90;;;;;;5052306;28;20186;-44
2023/06/03 10:20:39;;;;;;;6.30;4.95;;;26.30;99.90;;;;;;5032306;28;20245;-43
2023/06/03 10:23:07;;;;;;;7.43;4.82;;;26.20;99.90;;;;;;5051853;28;20189;-44
2023/06/03 10:25:45;;;;;;;8.13;4.85;;;26.00;99.90;;;;;;5043588;28;20202;-43
2023/06/03 10:28:12;;;;;;;6.53;4.72;;;26.00;99.90;;;;;;5051927;28;20192;-43
2023/06/03 10:30:39;;;;;;;7.60;5.15;;;26.00;99.90;;;;;;5035267;28;20186;-44
2023/06/03 10:33:08;;;;;;;5.78;5.10;;;26.10;99.90;;;;;;5051907;28;20228;-42
2023/06/03 10:35:36;;;;;;;10.07;5.43;;;26.10;99.90;;;;;;5051576;28;20218;-43
2023/06/03 10:38:04;;;;;;;7.10;5.10;;;26.30;99.90;;;;;;5048199;28;20174;-43
2023/06/03 10:40:30;;;;;;;8.40;5.38;;;26.20;99.90;;;;;;5051761;28;20198;-44
2023/06/03 10:42:57;;;;;;;7.53;4.97;;;26.00;99.90;;;;;;5035219;28;20192;-44
2023/06/03 10:45:24;;;;;;;9.75;5.68;;;26.00;99.90;;;;;;5051730;28;20205;-43
2023/06/03 10:47:56;;;;;;;7.65;5.45;;;26.10;99.90;;;;;;5051512;28;20227;-43
2023/06/03 10:50:47;;;;;;;9.68;5.28;;;26.40;99.90;;;;;;5043902;28;20182;-44
2023/06/03 10:53:49;;;;;;;8.13;5.53;;;26.60;99.90;;;;;;5060915;28;20186;-41
2023/06/03 10:56:29;;;;;;;6.85;4.90;;;26.50;99.90;;;;;;5042182;28;20209;-44
2023/06/03 10:59:03;;;;;;;7.18;4.80;;;26.70;99.90;;;;;;5051856;28;20178;-44
2023/06/03 11:01:55;;;;;;;8.10;4.82;;;27.00;99.90;;;;;;5046771;28;20186;-42
2023/06/03 11:04:20;;;;;;;6.40;4.72;;;27.30;99.90;;;;;;5034602;28;20209;-44
2023/06/03 11:06:46;;;;;;;6.80;4.63;;;27.30;99.90;;;;;;5034714;28;20189;-44
2023/06/03 11:09:18;;;;;;;7.50;4.88;;;27.60;99.90;;;;;;5044796;28;20190;-44
2023/06/03 11:11:52;;;;;;;9.07;5.40;;;27.30;99.90;;;;;;5034693;28;20320;-41
2023/06/03 11:14:24;;;;;;;9.27;5.57;;;27.60;99.90;;;;;;5051437;28;20201;-41
2023/06/03 11:16:56;;;;;;;10.35;5.53;;;27.60;99.90;;;;;;5050841;28;20220;-43
2023/06/03 11:19:33;;;;;;;10.23;5.88;;;27.60;99.90;;;;;;5050247;28;20182;-42
2023/06/03 11:22:09;;;;;;;9.15;5.43;;;27.50;99.90;;;;;;5056291;28;20177;-44
2023/06/03 11:24:38;;;;;;;7.97;5.35;;;27.20;99.90;;;;;;5059334;28;20198;-44
2023/06/03 11:27:10;;;;;;;7.63;4.95;;;27.30;99.90;;;;;;5034245;28;20189;-43
2023/06/03 11:29:51;;;;;;;10.55;5.30;;;27.50;99.90;;;;;;5052533;28;20186;-44
2023/06/03 11:32:22;;;;;;;5.82;5.15;;;27.60;99.90;;;;;;5034265;28;20243;-41
2023/06/03 11:35:11;;;;;;;8.38;5.63;;;27.50;99.90;;;;;;5050704;28;20252;-41
2023/06/03 11:37:46;;;;;;;8.05;5.55;;;27.00;99.90;;;;;;5042825;28;20276;-44
2023/06/03 11:40:18;;;;;;;8.48;5.50;;;27.00;99.90;;;;;;5032469;28;20212;-42
2023/06/03 11:42:47;;;;;;;8.15;5.88;;;27.30;99.90;;;;;;5050829;28;20194;-43
2023/06/03 11:45:24;;;;;;;7.80;5.60;;;27.50;99.90;;;;;;5050380;28;20206;-43
2023/06/03 11:47:57;;;;;;;6.20;5.07;;;27.90;99.90;;;;;;5050559;28;20193;-44
2023/06/03 11:50:32;;;;;;;5.88;5.00;;;28.10;99.90;;;;;;5050258;28;20241;-44
2023/06/03 11:52:58;;;;;;;8.13;5.10;;;28.00;99.90;;;;;;5047630;28;20276;-44
2023/06/03 11:55:28;;;;;;;7.43;5.68;;;27.90;99.90;;;;;;5049977;28;20249;-44
2023/06/03 11:57:56;;;;;;;10.20;5.85;;;27.60;99.90;;;;;;5050207;28;20210;-44
2023/06/03 12:00:22;;;;;;;10.10;5.15;;;27.50;99.90;;;;;;5050357;28;20182;-44
2023/06/03 12:02:48;;;;;;;5.95;5.20;;;27.20;99.90;;;;;;5029935;28;20182;-44
2023/06/03 12:05:15;;;;;;;8.90;5.60;;;27.50;99.90;;;;;;5040805;28;20270;-44
2023/06/03 12:08:01;;;;;;;6.57;5.10;;;27.50;99.80;;;;;;5031752;28;20194;-43
2023/06/03 12:10:27;;;;;;;7.43;5.50;;;27.70;99.90;;;;;;5033370;28;20202;-44
2023/06/03 12:12:57;;;;;;;7.38;5.28;;;27.80;99.90;;;;;;5042885;28;20190;-44
2023/06/03 12:15:25;;;;;;;6.65;5.40;;;28.10;99.90;;;;;;5042043;28;20293;-41
2023/06/03 12:17:51;;;;;;;8.63;5.25;;;28.40;99.80;;;;;;5051520;28;20186;-43
2023/06/03 12:20:27;;;;;;;6.60;5.57;;;28.60;99.20;;;;;;5033151;28;20187;-44
2023/06/03 12:23:04;;;;;;;7.90;5.65;;;28.50;99.60;;;;;;5040477;28;20256;-44
2023/06/03 12:25:31;;;;;;;6.35;5.03;;;28.70;97.90;;;;;;5030667;28;20202;-44
2023/06/03 12:27:57;;;;;;;5.68;5.07;;;28.90;99.90;;;;;;5033345;28;20182;-37
2023/06/03 12:30:29;;;;;;;7.40;4.95;;;28.90;98.90;;;;;;5033281;28;20193;-43
2023/06/03 12:32:58;;;;;;;7.35;5.45;;;28.90;98.10;;;;;;5049947;28;20205;-44
2023/06/03 12:35:25;;;;;;;6.88;5.38;;;28.60;97.70;;;;;;5032790;28;20351;-44
2023/06/03 12:38:09;;;;;;;6.85;5.10;;;28.60;99.00;;;;;;5046661;28;20325;-43
2023/06/03 12:40:36;;;;;;;7.53;5.25;;;28.60;98.20;;;;;;5042472;28;20231;-44
2023/06/03 12:43:05;;;;;;;7.47;5.03;;;28.50;97.40;;;;;;5033232;28;20178;-44
2023/06/03 12:45:31;;;;;;;6.40;5.63;;;28.60;98.30;;;;;;5049555;28;20201;-43
2023/06/03 12:47:57;;;;;;;5.93;5.32;;;28.50;97.30;;;;;;5049620;28;20296;-43
2023/06/03 12:50:30;;;;;;;7.45;5.22;;;28.40;97.60;;;;;;5032788;28;20320;-43
2023/06/03 12:52:56;;;;;;;6.32;5.25;;;28.80;98.60;;;;;;5064732;28;20283;-44
2023/06/03 12:55:25;;;;;;;5.38;4.55;;;29.20;97.90;;;;;;5049119;28;20276;-44
2023/06/03 12:57:51;;;;;;;8.75;5.60;;;29.20;97.10;;;;;;5050994;28;20184;-43